createdAt,value
2022-12-28T00:01:47.059Z,47.00
2022-12-28T00:04:15.499Z,46.80
2022-12-28T00:06:42.609Z,46.80
2022-12-28T00:09:11.950Z,46.80
2022-12-28T00:11:38.928Z,47.00
2022-12-28T00:14:05.983Z,46.90
2022-12-28T00:16:38.232Z,46.80
2022-12-28T00:19:15.935Z,46.80
2022-12-28T00:21:43.571Z,46.70
2022-12-28T00:24:24.664Z,47.30
2022-12-28T00:26:52.198Z,46.60
2022-12-28T00:29:19.456Z,46.70
2022-12-28T00:31:46.528Z,46.70
2022-12-28T00:34:13.635Z,46.70
2022-12-28T00:37:10.312Z,46.70
2022-12-28T00:39:29.288Z,46.70
2022-12-28T00:41:56.202Z,46.70
2022-12-28T00:44:23.101Z,46.70
2022-12-28T00:46:50.256Z,46.70
2022-12-28T00:49:18.390Z,46.70
2022-12-28T00:51:45.343Z,46.70
2022-12-28T00:54:12.280Z,46.80
2022-12-28T00:56:42.952Z,46.60
2022-12-28T00:59:10.383Z,46.60
2022-12-28T01:01:37.604Z,46.60
2022-12-28T01:04:04.921Z,46.60
2022-12-28T01:06:31.793Z,46.60
2022-12-28T01:08:58.686Z,46.60
2022-12-28T01:11:29.183Z,46.60
2022-12-28T01:13:58.406Z,46.70
2022-12-28T01:16:28.620Z,46.70
2022-12-28T01:18:57.849Z,46.60
2022-12-28T01:21:27.104Z,46.70
2022-12-28T01:23:54.728Z,46.60
2022-12-28T01:26:21.611Z,46.80
2022-12-28T01:28:48.478Z,47.00
2022-12-28T01:31:17.485Z,46.80
2022-12-28T01:33:44.834Z,46.70
2022-12-28T01:36:20.427Z,46.70
2022-12-28T01:38:47.900Z,46.80
2022-12-28T01:41:17.258Z,46.70
2022-12-28T01:44:07.661Z,46.60
2022-12-28T01:46:41.699Z,46.50
2022-12-28T01:49:31.979Z,46.70
2022-12-28T01:52:23.448Z,46.70
2022-12-28T01:55:00.651Z,46.70
2022-12-28T01:57:32.328Z,46.70
2022-12-28T02:00:28.817Z,46.80
2022-12-28T02:03:23.041Z,46.80
2022-12-28T02:05:52.558Z,46.80
2022-12-28T02:08:35.678Z,46.90
2022-12-28T02:11:02.566Z,46.90
2022-12-28T02:13:29.540Z,46.80
2022-12-28T02:15:57.629Z,46.90
2022-12-28T02:18:25.472Z,46.80
2022-12-28T02:21:09.548Z,46.90
2022-12-28T02:24:14.830Z,46.80
2022-12-28T02:26:50.515Z,46.70
2022-12-28T02:29:52.489Z,46.90
2022-12-28T02:32:30.550Z,46.70
2022-12-28T02:35:29.086Z,46.80
2022-12-28T02:37:55.892Z,46.80
2022-12-28T02:40:30.579Z,47.10
2022-12-28T02:42:57.746Z,47.00
2022-12-28T02:46:07.000Z,46.80
2022-12-28T02:49:01.635Z,46.80
2022-12-28T02:51:31.615Z,47.00
2022-12-28T02:54:54.522Z,47.10
2022-12-28T02:57:45.862Z,47.00
2022-12-28T03:00:16.882Z,47.10
2022-12-28T03:02:49.664Z,47.10
2022-12-28T03:05:53.285Z,47.20
2022-12-28T03:08:47.213Z,47.00
2022-12-28T03:11:20.564Z,47.00
2022-12-28T03:13:53.557Z,47.10
2022-12-28T03:17:01.847Z,47.20
2022-12-28T03:19:50.083Z,47.00
2022-12-28T03:22:36.928Z,47.30
2022-12-28T03:25:30.923Z,48.10
2022-12-28T03:28:17.673Z,47.30
2022-12-28T03:31:03.779Z,47.40
2022-12-28T03:33:42.247Z,47.30
2022-12-28T03:36:38.003Z,47.30
2022-12-28T03:39:30.339Z,47.20
2022-12-28T03:42:42.016Z,47.30
2022-12-28T03:45:46.389Z,47.20
2022-12-28T03:48:16.276Z,47.30
2022-12-28T03:50:45.535Z,47.40
2022-12-28T03:53:15.557Z,47.30
2022-12-28T03:55:43.398Z,47.30
2022-12-28T03:58:10.740Z,47.30
2022-12-28T04:00:38.419Z,47.20
2022-12-28T04:03:05.495Z,47.20
2022-12-28T04:05:34.869Z,47.20
2022-12-28T04:08:01.823Z,47.20
2022-12-28T04:10:28.774Z,47.20
2022-12-28T04:12:56.862Z,47.20
2022-12-28T04:15:29.414Z,47.20
2022-12-28T04:18:03.681Z,47.20
2022-12-28T04:20:30.708Z,47.20
2022-12-28T04:22:58.887Z,47.20
2022-12-28T04:25:25.869Z,47.20
2022-12-28T04:27:53.172Z,47.20
2022-12-28T04:30:45.584Z,47.20
2022-12-28T04:33:12.698Z,47.20
2022-12-28T04:35:41.892Z,47.20
2022-12-28T04:38:08.943Z,47.30
2022-12-28T04:40:35.825Z,47.50
2022-12-28T04:43:02.697Z,47.50
2022-12-28T04:45:29.663Z,47.50
2022-12-28T04:48:00.221Z,47.40
2022-12-28T04:50:27.490Z,47.30
2022-12-28T04:52:54.668Z,47.40
2022-12-28T04:55:32.015Z,47.30
2022-12-28T04:58:00.571Z,47.30
2022-12-28T05:00:27.585Z,47.40
2022-12-28T05:02:54.580Z,47.40
2022-12-28T05:05:21.507Z,47.40
2022-12-28T05:07:48.391Z,47.40
2022-12-28T05:10:15.268Z,47.40
2022-12-28T05:12:42.260Z,47.40
2022-12-28T05:15:09.469Z,47.40
2022-12-28T05:17:36.514Z,47.40
2022-12-28T05:20:04.984Z,47.40
2022-12-28T05:22:36.239Z,47.40
2022-12-28T05:25:06.466Z,47.40
2022-12-28T05:27:33.354Z,47.50
2022-12-28T05:30:00.224Z,47.50
2022-12-28T05:32:27.051Z,47.50
2022-12-28T05:34:53.967Z,47.50
2022-12-28T05:37:22.273Z,47.50
2022-12-28T05:39:49.399Z,47.50
2022-12-28T05:42:16.343Z,47.60
2022-12-28T05:44:43.174Z,47.60
2022-12-28T05:47:10.043Z,47.60
2022-12-28T05:49:36.917Z,47.60
2022-12-28T05:52:03.880Z,47.50
2022-12-28T05:54:30.743Z,47.50
2022-12-28T05:56:57.657Z,47.60
2022-12-28T05:59:24.595Z,47.60
2022-12-28T06:01:51.664Z,47.60
2022-12-28T06:04:20.420Z,47.60
2022-12-28T06:06:48.453Z,47.60
2022-12-28T06:09:15.632Z,47.60
2022-12-28T06:11:42.600Z,47.60
2022-12-28T06:14:09.533Z,47.60
2022-12-28T06:16:38.980Z,47.70
2022-12-28T06:19:07.449Z,47.60
2022-12-28T06:21:36.075Z,47.70
2022-12-28T06:24:04.223Z,47.70
2022-12-28T06:26:32.227Z,47.80
2022-12-28T06:28:59.583Z,47.80
2022-12-28T06:31:28.841Z,47.70
2022-12-28T06:33:57.639Z,47.70
2022-12-28T06:36:27.479Z,47.70
2022-12-28T06:38:56.287Z,47.80
2022-12-28T06:41:23.830Z,47.80
2022-12-28T06:43:51.237Z,47.80
2022-12-28T06:46:19.770Z,47.80
2022-12-28T06:48:47.379Z,47.80
2022-12-28T06:51:19.654Z,47.90
2022-12-28T06:53:47.482Z,47.90
2022-12-28T06:56:25.864Z,48.00
2022-12-28T06:58:57.034Z,48.00
2022-12-28T07:01:40.551Z,48.10
2022-12-28T07:04:09.347Z,48.20
2022-12-28T07:06:38.781Z,48.40
2022-12-28T07:09:09.145Z,48.50
2022-12-28T07:11:36.431Z,48.60
2022-12-28T07:14:03.373Z,48.70
2022-12-28T07:18:57.662Z,48.70
2022-12-28T07:21:26.880Z,48.70
2022-12-28T07:23:55.096Z,48.70
2022-12-28T07:26:24.693Z,48.70
2022-12-28T07:28:53.801Z,48.70
2022-12-28T07:31:33.794Z,48.60
2022-12-28T07:34:03.919Z,48.50
2022-12-28T07:36:32.142Z,48.50
2022-12-28T07:38:59.341Z,48.50
2022-12-28T07:41:29.214Z,48.50
2022-12-28T07:43:58.789Z,48.40
2022-12-28T07:46:30.767Z,48.40
2022-12-28T07:48:58.038Z,48.30
2022-12-28T07:51:30.749Z,48.60
2022-12-28T07:53:59.084Z,48.70
2022-12-28T07:56:27.498Z,49.00
2022-12-28T07:58:56.864Z,49.10
2022-12-28T08:01:25.780Z,49.20
2022-12-28T08:03:58.230Z,49.30
2022-12-28T08:06:25.725Z,49.30
2022-12-28T08:08:55.320Z,49.30
2022-12-28T08:11:24.262Z,49.30
2022-12-28T08:13:52.921Z,49.20
2022-12-28T08:16:21.301Z,49.30
2022-12-28T08:18:49.519Z,49.30
2022-12-28T08:21:18.882Z,49.30
2022-12-28T08:23:46.033Z,49.30
2022-12-28T08:26:18.893Z,49.20
2022-12-28T08:28:46.873Z,49.40
2022-12-28T08:31:22.657Z,49.40
2022-12-28T08:33:49.893Z,49.40
2022-12-28T08:36:17.195Z,49.80
2022-12-28T08:38:45.229Z,50.00
2022-12-28T08:41:14.158Z,50.10
2022-12-28T08:43:41.249Z,50.30
2022-12-28T08:46:11.690Z,50.20
2022-12-28T08:48:39.172Z,50.10
2022-12-28T08:51:08.547Z,50.50
2022-12-28T08:53:36.519Z,49.70
2022-12-28T08:56:15.650Z,49.70
2022-12-28T08:58:43.725Z,49.60
2022-12-28T09:01:25.660Z,49.60
2022-12-28T09:03:56.054Z,49.60
2022-12-28T09:06:49.735Z,49.60
2022-12-28T09:09:19.189Z,49.50
2022-12-28T09:11:46.546Z,49.60
2022-12-28T09:14:22.011Z,49.60
2022-12-28T09:16:50.868Z,49.70
2022-12-28T09:19:17.937Z,49.70
2022-12-28T09:21:48.843Z,49.70
2022-12-28T09:24:15.743Z,49.80
2022-12-28T09:26:42.723Z,49.90
2022-12-28T09:29:12.142Z,50.10
2022-12-28T09:31:40.484Z,50.30
2022-12-28T09:36:58.303Z,50.40
2022-12-28T09:39:25.376Z,50.30
2022-12-28T09:42:17.242Z,50.20
2022-12-28T09:44:53.686Z,50.30
2022-12-28T09:47:32.477Z,50.40
2022-12-28T09:50:24.838Z,50.20
2022-12-28T09:53:26.629Z,50.10
2022-12-28T09:56:02.553Z,50.10
2022-12-28T09:58:30.888Z,50.00
2022-12-28T10:00:59.769Z,50.20
2022-12-28T10:03:41.141Z,50.40
2022-12-28T10:06:28.659Z,51.20
2022-12-28T10:08:58.540Z,50.50
2022-12-28T10:11:34.971Z,50.60
2022-12-28T10:14:08.763Z,50.60
2022-12-28T10:16:36.673Z,50.60
2022-12-28T10:19:06.553Z,50.60
2022-12-28T10:21:34.056Z,50.80
2022-12-28T10:24:30.402Z,50.60
2022-12-28T10:26:49.216Z,50.50
2022-12-28T10:29:26.137Z,50.50
2022-12-28T10:32:09.177Z,50.40
2022-12-28T10:34:37.289Z,50.60
2022-12-28T10:37:16.623Z,50.80
2022-12-28T10:40:18.262Z,50.90
2022-12-28T10:42:51.108Z,50.90
2022-12-28T10:45:20.727Z,50.80
2022-12-28T10:47:50.356Z,50.70
2022-12-28T10:50:56.747Z,50.50
2022-12-28T10:53:29.773Z,50.30
2022-12-28T10:56:14.282Z,50.50
2022-12-28T10:58:45.468Z,50.40
2022-12-28T11:01:12.399Z,50.60
2022-12-28T11:03:43.806Z,50.80
2022-12-28T11:06:24.222Z,50.90
2022-12-28T11:09:13.053Z,51.10
2022-12-28T11:11:40.330Z,51.10
2022-12-28T11:14:30.629Z,51.30
2022-12-28T11:16:58.163Z,51.10
2022-12-28T11:19:25.980Z,51.30
2022-12-28T11:21:53.473Z,51.50
2022-12-28T11:24:27.771Z,51.70
2022-12-28T11:26:54.878Z,52.00
2022-12-28T11:29:21.897Z,52.30
2022-12-28T11:31:56.092Z,52.30
2022-12-28T11:34:25.900Z,52.20
2022-12-28T11:36:53.317Z,52.20
2022-12-28T11:39:26.339Z,52.20
2022-12-28T11:42:19.478Z,52.40
2022-12-28T11:44:41.008Z,52.50
2022-12-28T11:47:17.095Z,52.60
2022-12-28T11:49:45.547Z,52.80
2022-12-28T11:52:18.226Z,53.10
2022-12-28T11:55:20.071Z,54.10
2022-12-28T11:57:47.055Z,54.40
2022-12-28T12:00:23.161Z,54.70
2022-12-28T12:02:56.530Z,55.20
2022-12-28T12:05:35.475Z,55.10
2022-12-28T12:08:23.169Z,55.30
2022-12-28T12:11:29.465Z,55.10
2022-12-28T12:13:57.615Z,54.70
2022-12-28T12:16:33.960Z,54.80
2022-12-28T12:19:01.233Z,54.90
2022-12-28T12:21:40.578Z,54.80
2022-12-28T12:24:37.325Z,55.00
2022-12-28T12:27:33.870Z,54.70
2022-12-28T12:30:03.743Z,54.60
2022-12-28T12:32:39.047Z,54.60
2022-12-28T12:35:08.416Z,54.70
2022-12-28T12:37:52.910Z,54.70
2022-12-28T12:40:41.898Z,54.70
2022-12-28T12:43:11.797Z,54.50
2022-12-28T12:45:57.517Z,54.30
2022-12-28T12:48:30.394Z,54.70
2022-12-28T12:51:14.954Z,54.70
2022-12-28T12:54:09.864Z,54.50
2022-12-28T12:57:14.380Z,54.40
2022-12-28T13:00:11.887Z,54.30
2022-12-28T13:02:41.893Z,54.10
2022-12-28T13:05:16.458Z,54.30
2022-12-28T13:07:43.410Z,54.00
2022-12-28T13:10:16.219Z,53.60
2022-12-28T13:12:43.147Z,53.70
2022-12-28T13:15:16.639Z,53.70
2022-12-28T13:18:44.678Z,53.70
2022-12-28T13:21:12.541Z,53.50
2022-12-28T13:23:44.898Z,53.70
2022-12-28T13:26:13.160Z,53.70
2022-12-28T13:28:48.170Z,53.60
2022-12-28T13:31:21.559Z,53.50
2022-12-28T13:34:00.707Z,53.40
2022-12-28T13:36:27.626Z,53.20
2022-12-28T13:39:12.809Z,53.10
2022-12-28T13:41:49.852Z,53.30
2022-12-28T13:44:32.228Z,53.30
2022-12-28T13:47:23.608Z,53.10
2022-12-28T13:50:03.707Z,52.90
2022-12-28T13:52:59.269Z,52.90
2022-12-28T13:55:34.780Z,52.80
2022-12-28T13:58:06.209Z,52.00
2022-12-28T14:00:33.769Z,52.40
2022-12-28T14:03:00.833Z,52.50
2022-12-28T14:05:29.343Z,52.50
2022-12-28T14:07:58.114Z,52.50
2022-12-28T14:10:25.583Z,52.50
2022-12-28T14:12:52.980Z,51.50
2022-12-28T14:15:20.217Z,51.60
2022-12-28T14:17:48.169Z,51.80
2022-12-28T14:20:15.267Z,52.20
2022-12-28T14:22:42.276Z,52.60
2022-12-28T14:25:17.810Z,52.80
2022-12-28T14:27:56.952Z,53.00
2022-12-28T14:30:28.727Z,53.10
2022-12-28T14:32:56.264Z,53.20
2022-12-28T14:35:25.619Z,53.30
2022-12-28T14:37:57.674Z,53.40
2022-12-28T14:40:26.356Z,53.50
2022-12-28T14:42:54.472Z,53.40
2022-12-28T14:45:23.976Z,53.70
2022-12-28T14:47:56.810Z,53.70
2022-12-28T14:50:29.623Z,53.60
2022-12-28T14:53:18.385Z,53.90
2022-12-28T14:56:00.499Z,53.90
2022-12-28T14:58:50.519Z,54.00
2022-12-28T15:01:18.738Z,54.00
2022-12-28T15:03:57.379Z,54.20
2022-12-28T15:06:29.951Z,54.10
2022-12-28T15:09:04.912Z,54.20
2022-12-28T15:11:31.822Z,53.90
2022-12-28T15:13:58.671Z,53.60
2022-12-28T15:16:25.583Z,53.30
2022-12-28T15:18:53.008Z,53.30
2022-12-28T15:21:22.468Z,53.40
2022-12-28T15:23:50.662Z,53.50
2022-12-28T15:26:17.806Z,53.40
2022-12-28T15:28:44.831Z,53.40
2022-12-28T15:31:14.196Z,53.50
2022-12-28T15:33:41.135Z,53.50
2022-12-28T15:36:17.254Z,53.40
2022-12-28T15:38:45.478Z,53.40
2022-12-28T15:41:30.886Z,53.40
2022-12-28T15:43:57.864Z,53.60
2022-12-28T15:46:24.745Z,53.60
2022-12-28T15:48:51.962Z,53.70
2022-12-28T15:51:18.863Z,53.60
2022-12-28T15:53:45.753Z,53.60
2022-12-28T15:56:39.153Z,53.60
2022-12-28T15:59:14.352Z,53.50
2022-12-28T16:01:43.606Z,54.30
2022-12-28T16:04:10.893Z,54.00
2022-12-28T16:06:43.810Z,54.20
2022-12-28T16:09:12.075Z,53.50
2022-12-28T16:11:38.958Z,53.70
2022-12-28T16:14:07.725Z,53.80
2022-12-28T16:16:38.433Z,53.80
2022-12-28T16:19:07.045Z,54.30
2022-12-28T16:21:34.177Z,54.60
2022-12-28T16:24:01.352Z,54.30
2022-12-28T16:26:28.663Z,54.40
2022-12-28T16:28:55.845Z,54.10
2022-12-28T16:31:36.676Z,54.00
2022-12-28T16:34:07.019Z,53.90
2022-12-28T16:36:34.529Z,54.40
2022-12-28T16:39:07.029Z,53.40
2022-12-28T16:41:37.333Z,52.10
2022-12-28T16:44:12.712Z,52.10
2022-12-28T16:46:39.669Z,52.30
2022-12-28T16:49:06.466Z,52.10
2022-12-28T16:51:33.397Z,51.10
2022-12-28T16:54:00.238Z,51.30
2022-12-28T16:56:27.488Z,51.40
2022-12-28T16:58:58.604Z,51.50
2022-12-28T17:01:25.721Z,51.50
2022-12-28T17:03:53.250Z,51.60
2022-12-28T17:06:21.490Z,51.70
2022-12-28T17:08:48.348Z,51.80
2022-12-28T17:11:15.273Z,52.10
2022-12-28T17:13:42.164Z,52.30
2022-12-28T17:16:09.153Z,52.60
2022-12-28T17:18:37.215Z,52.60
2022-12-28T17:21:07.254Z,52.70
2022-12-28T17:23:34.269Z,52.70
2022-12-28T17:26:01.140Z,52.80
2022-12-28T17:28:29.459Z,52.70
2022-12-28T17:31:16.506Z,52.90
2022-12-28T17:33:49.534Z,53.00
2022-12-28T17:36:16.752Z,52.90
2022-12-28T17:38:43.646Z,52.40
2022-12-28T17:41:20.513Z,52.40
2022-12-28T17:43:55.122Z,52.30
2022-12-28T17:46:23.195Z,52.30
2022-12-28T17:48:55.041Z,52.30
2022-12-28T17:51:24.219Z,52.20
2022-12-28T17:53:51.562Z,52.20
2022-12-28T17:56:18.578Z,52.10
2022-12-28T17:58:45.679Z,52.40
2022-12-28T18:01:13.696Z,52.20
2022-12-28T18:03:41.063Z,52.00
2022-12-28T18:06:08.105Z,52.10
2022-12-28T18:08:35.077Z,52.30
2022-12-28T18:11:02.921Z,52.50
2022-12-28T18:13:30.141Z,52.50
2022-12-28T18:15:57.397Z,52.50
2022-12-28T18:18:24.354Z,52.60
2022-12-28T18:21:03.082Z,52.50
2022-12-28T18:23:30.117Z,52.30
2022-12-28T18:26:13.322Z,51.80
2022-12-28T18:28:40.390Z,51.90
2022-12-28T18:31:08.361Z,52.00
2022-12-28T18:33:35.591Z,52.00
2022-12-28T18:36:08.630Z,52.00
2022-12-28T18:38:39.158Z,51.90
2022-12-28T18:41:06.253Z,51.90
2022-12-28T18:43:33.179Z,51.90
2022-12-28T18:46:01.985Z,51.80
2022-12-28T18:48:29.497Z,51.80
2022-12-28T18:50:58.720Z,51.90
2022-12-28T18:53:26.919Z,51.70
2022-12-28T18:56:00.998Z,51.70
2022-12-28T18:58:29.314Z,51.70
2022-12-28T19:04:11.285Z,51.50
2022-12-28T19:06:38.457Z,51.70
2022-12-28T19:09:06.312Z,51.60
2022-12-28T19:11:33.756Z,51.60
2022-12-28T19:14:03.028Z,51.50
2022-12-28T19:16:31.808Z,51.40
2022-12-28T19:19:01.775Z,51.40
2022-12-28T19:21:35.545Z,51.50
2022-12-28T19:24:07.544Z,51.70
2022-12-28T19:26:35.367Z,51.70
2022-12-28T19:29:03.541Z,51.60
2022-12-28T19:31:31.172Z,51.50
2022-12-28T19:33:58.266Z,51.40
2022-12-28T19:36:25.759Z,51.40
2022-12-28T19:38:56.322Z,51.30
2022-12-28T19:41:23.950Z,51.30
2022-12-28T19:43:51.243Z,51.40
2022-12-28T19:46:20.362Z,51.30
2022-12-28T19:48:47.234Z,51.30
2022-12-28T19:51:14.703Z,51.30
2022-12-28T19:53:41.691Z,51.50
2022-12-28T19:56:13.296Z,51.60
2022-12-28T19:58:40.584Z,51.50
2022-12-28T20:01:16.442Z,51.30
2022-12-28T20:03:43.617Z,51.30
2022-12-28T20:06:13.195Z,51.30
2022-12-28T20:08:40.736Z,51.10
2022-12-28T20:11:07.803Z,51.30
2022-12-28T20:13:35.121Z,51.30
2022-12-28T20:16:02.592Z,51.20
2022-12-28T20:18:29.603Z,51.20
2022-12-28T20:21:19.167Z,51.20
2022-12-28T20:23:48.210Z,51.20
2022-12-28T20:26:15.468Z,51.30
2022-12-28T20:28:42.558Z,51.30
2022-12-28T20:31:13.011Z,51.10
2022-12-28T20:33:40.159Z,51.20
2022-12-28T20:36:10.381Z,51.10
2022-12-28T20:38:37.637Z,51.00
2022-12-28T20:41:31.658Z,50.90
2022-12-28T20:44:06.982Z,50.90
2022-12-28T20:46:33.957Z,51.00
2022-12-28T20:49:01.062Z,51.00
2022-12-28T20:51:28.648Z,51.00
2022-12-28T20:53:55.626Z,51.00
2022-12-28T20:56:23.111Z,50.90
2022-12-28T20:58:50.533Z,50.90
2022-12-28T21:01:18.287Z,50.90
2022-12-28T21:03:45.908Z,50.80
2022-12-28T21:06:13.212Z,50.80
2022-12-28T21:08:40.291Z,50.80
2022-12-28T21:11:07.261Z,50.80
2022-12-28T21:13:35.273Z,50.90
2022-12-28T21:16:06.082Z,50.90
2022-12-28T21:18:33.322Z,50.80
2022-12-28T21:21:01.268Z,51.60
2022-12-28T21:23:31.851Z,50.90
2022-12-28T21:26:03.036Z,50.80
2022-12-28T21:28:29.987Z,50.80
2022-12-28T21:30:57.936Z,50.80
2022-12-28T21:33:24.863Z,50.80
2022-12-28T21:36:01.700Z,50.90
2022-12-28T21:38:29.534Z,50.80
2022-12-28T21:41:07.772Z,50.90
2022-12-28T21:43:34.684Z,50.80
2022-12-28T21:46:19.537Z,50.90
2022-12-28T21:48:46.399Z,50.80
2022-12-28T21:51:34.054Z,50.90
2022-12-28T21:54:06.269Z,50.90
2022-12-28T21:56:34.779Z,51.00
2022-12-28T21:59:01.718Z,51.00
2022-12-28T22:01:47.243Z,50.90
2022-12-28T22:04:35.053Z,50.90
2022-12-28T22:07:02.340Z,51.00
2022-12-28T22:09:47.651Z,51.10
2022-12-28T22:12:33.528Z,51.10
2022-12-28T22:15:21.317Z,51.00
2022-12-28T22:17:48.280Z,51.10
2022-12-28T22:20:16.194Z,51.10
2022-12-28T22:22:43.707Z,51.10
2022-12-28T22:25:12.261Z,51.10
2022-12-28T22:27:39.343Z,51.00
2022-12-28T22:30:06.740Z,51.10
2022-12-28T22:32:33.604Z,51.10
2022-12-28T22:35:00.429Z,51.10
2022-12-28T22:37:27.298Z,51.00
2022-12-28T22:39:54.161Z,51.00
2022-12-28T22:42:21.046Z,51.70
2022-12-28T22:44:47.973Z,51.10
2022-12-28T22:47:14.806Z,51.00
2022-12-28T22:49:41.649Z,51.00
2022-12-28T22:52:08.663Z,51.00
2022-12-28T22:54:35.491Z,51.60
2022-12-28T22:57:02.484Z,51.00
2022-12-28T22:59:29.330Z,51.00
2022-12-28T23:01:56.286Z,51.00
2022-12-28T23:04:23.217Z,51.00
2022-12-28T23:06:50.941Z,51.10
2022-12-28T23:09:17.965Z,51.00
2022-12-28T23:11:44.900Z,51.00
2022-12-28T23:14:37.300Z,51.10
2022-12-28T23:17:10.445Z,51.20
2022-12-28T23:19:55.959Z,51.10
2022-12-28T23:22:44.403Z,51.10
2022-12-28T23:25:36.015Z,51.10
2022-12-28T23:28:06.033Z,51.10
2022-12-28T23:30:33.349Z,51.30
2022-12-28T23:33:01.098Z,51.20
2022-12-28T23:35:28.025Z,51.40
2022-12-28T23:37:55.338Z,51.40
2022-12-28T23:40:23.181Z,51.40
2022-12-28T23:42:50.527Z,52.10
2022-12-28T23:45:18.588Z,51.50
2022-12-28T23:47:46.130Z,51.50
2022-12-28T23:50:15.371Z,51.50
2022-12-28T23:52:42.180Z,52.20
2022-12-28T23:55:10.043Z,51.50
2022-12-28T23:57:37.385Z,52.00
